My Plover Weather SKY Cam is now in Wide Screen HD and updates every 5 minutes.

Check out the following SkyCam Time-Lapse from Monday Afternoon (2-4pm).
Plover Weather TEST Time-Lapse (2pm-4pm) in MP4
Plover Weather TEST Time-Lapse (2pm-4pm) in WMV

All current conditions and weather history are recorded live from Forest Drive in Plover Wisconsin. Plover Weather is a Non Profit volunteer public donation funded site.

Live Plover Skycam  Live Plover Skycam



from: Jun 26 2017 9:19 pm until: Jun 27 2017 2:30 pm Hydrologic Outlook 
- Responsive action SHOULD be taken in the near future

Weather Underground History page Text

Daily Summary for June 27, 2017 Units:  English    Metric   Both
« Previous Day
Next Day »
Daily Weekly Monthly Yearly Custom
  Current: High: Low: Average:
Temperature: 73.6 °F 73.9 °F 44.6 °F 56.3 °F
Dew Point: 46.4 °F 56.3 °F 42.9 °F 46.3 °F
Humidity: 38 % 97 % 38 % 74 %
Wind Speed: 6.9 mph 18.4 mph 0.0 mph 6.9 mph
Wind Gust: 6.9 mph 18.4 mph - -
Wind:NNW - - WNW
Pressure: 30.01 in 30.10 in 30.01 in -
Precipitation: 0.00 in      
Historical Graphs
 
 
Tabular Data for June 27, 2017
Time Temperature Dew Point Pressure Wind Wind Speed Wind Gust Humidity Rainfall Rate (Hourly)
00:04 50.9 °F 45.6 °F 30.07 in NNW 3.5 mph 3.5 mph 82 % 0.00 in
00:09 50.9 °F 45.6 °F 30.07 in NNW 3.5 mph 3.5 mph 82 % 0.00 in
00:14 50.7 °F 45.4 °F 30.07 in NNW 3.5 mph 3.5 mph 82 % 0.00 in
00:19 50.7 °F 45.4 °F 30.07 in NNW 3.5 mph 3.5 mph 82 % 0.00 in
00:24 50.5 °F 45.2 °F 30.07 in NNW 3.5 mph 3.5 mph 82 % 0.00 in
00:29 50.4 °F 45.1 °F 30.07 in NNW 3.5 mph 3.5 mph 82 % 0.00 in
00:34 50.2 °F 44.9 °F 30.07 in NNW 3.5 mph 3.5 mph 82 % 0.00 in
00:39 50.2 °F 44.9 °F 30.07 in NNW 3.5 mph 3.5 mph 82 % 0.00 in
00:44 50.0 °F 45.0 °F 30.07 in NNW 3.5 mph 3.5 mph 83 % 0.00 in
00:49 50.0 °F 45.0 °F 30.07 in NNW 3.5 mph 3.5 mph 83 % 0.00 in
00:54 49.8 °F 45.2 °F 30.07 in NNW 3.5 mph 3.5 mph 84 % 0.00 in
00:59 49.6 °F 45.0 °F 30.07 in NNW 3.5 mph 3.5 mph 84 % 0.00 in
01:04 49.5 °F 44.8 °F 30.07 in Calm     84 % 0.00 in
01:09 49.3 °F 45.0 °F 30.07 in Calm     85 % 0.00 in
01:14 49.1 °F 44.8 °F 30.07 in Calm     85 % 0.00 in
01:19 48.7 °F 44.4 °F 30.07 in Calm     85 % 0.00 in
01:24 48.7 °F 44.7 °F 30.07 in Calm     86 % 0.00 in
01:29 48.7 °F 44.7 °F 30.07 in Calm     86 % 0.00 in
01:30 48.7 °F 44.7 °F 30.07 in Calm     86 % 0.00 in
01:35 48.6 °F 44.6 °F 30.07 in Calm     86 % 0.00 in
01:40 48.4 °F 44.7 °F 30.07 in Calm     87 % 0.00 in
01:45 48.4 °F 44.7 °F 30.07 in Calm     87 % 0.00 in
01:50 48.2 °F 44.8 °F 30.07 in Calm     88 % 0.00 in
01:55 48.0 °F 44.6 °F 30.07 in Calm     88 % 0.00 in
02:00 47.8 °F 44.5 °F 30.07 in Calm     88 % 0.00 in
02:05 47.8 °F 44.8 °F 30.07 in NNW 3.5 mph 3.5 mph 89 % 0.00 in
02:10 47.7 °F 44.6 °F 30.07 in NNW 3.5 mph 3.5 mph 89 % 0.00 in
02:15 47.7 °F 44.6 °F 30.04 in NNW 3.5 mph 3.5 mph 89 % 0.00 in
02:20 47.5 °F 44.4 °F 30.04 in NNW 3.5 mph 3.5 mph 89 % 0.00 in
02:25 47.3 °F 44.2 °F 30.04 in NNW 3.5 mph 3.5 mph 89 % 0.00 in
02:30 47.3 °F 44.5 °F 30.07 in NNW 3.5 mph 3.5 mph 90 % 0.00 in
02:35 47.3 °F 44.5 °F 30.07 in NNW 3.5 mph 3.5 mph 90 % 0.00 in
02:40 47.1 °F 44.3 °F 30.07 in NNW 3.5 mph 3.5 mph 90 % 0.00 in
02:45 46.9 °F 44.2 °F 30.07 in NNW 3.5 mph 3.5 mph 90 % 0.00 in
02:50 46.8 °F 44.0 °F 30.07 in NNW 3.5 mph 3.5 mph 90 % 0.00 in
02:55 46.6 °F 43.8 °F 30.07 in NNW 3.5 mph 3.5 mph 90 % 0.00 in
03:00 46.4 °F 43.9 °F 30.07 in NNW 3.5 mph 3.5 mph 91 % 0.00 in
03:05 46.6 °F 44.1 °F 30.07 in NNW 3.5 mph 3.5 mph 91 % 0.00 in
03:10 46.6 °F 44.1 °F 30.07 in NNW 3.5 mph 3.5 mph 91 % 0.00 in
03:15 46.6 °F 44.1 °F 30.07 in NNW 3.5 mph 3.5 mph 91 % 0.00 in
03:20 46.4 °F 43.9 °F 30.07 in NNW 3.5 mph 3.5 mph 91 % 0.00 in
03:25 46.0 °F 43.8 °F 30.07 in NNW 3.5 mph 3.5 mph 92 % 0.00 in
03:30 45.9 °F 43.7 °F 30.07 in NNW 3.5 mph 3.5 mph 92 % 0.00 in
03:35 45.9 °F 43.7 °F 30.07 in NNW 3.5 mph 3.5 mph 92 % 0.00 in
03:40 45.7 °F 43.5 °F 30.07 in NNW 3.5 mph 3.5 mph 92 % 0.00 in
03:45 45.5 °F 43.3 °F 30.07 in NNW 3.5 mph 3.5 mph 92 % 0.00 in
03:50 45.5 °F 43.6 °F 30.07 in NNW 3.5 mph 3.5 mph 93 % 0.00 in
03:55 45.5 °F 43.6 °F 30.07 in NNW 3.5 mph 3.5 mph 93 % 0.00 in
04:00 45.3 °F 43.4 °F 30.07 in NNW 3.5 mph 3.5 mph 93 % 0.00 in
04:05 45.3 °F 43.4 °F 30.07 in NNW 3.5 mph 3.5 mph 93 % 0.00 in
04:10 45.1 °F 43.2 °F 30.07 in NNW 3.5 mph 3.5 mph 93 % 0.00 in
04:15 45.1 °F 43.2 °F 30.07 in NNW 3.5 mph 3.5 mph 93 % 0.00 in
04:20 45.1 °F 43.2 °F 30.07 in NNW 3.5 mph 3.5 mph 93 % 0.00 in
04:25 45.3 °F 43.4 °F 30.07 in NNW 3.5 mph 3.5 mph 93 % 0.00 in
04:30 45.5 °F 43.6 °F 30.07 in NNW 3.5 mph 3.5 mph 93 % 0.00 in
04:35 45.3 °F 43.4 °F 30.07 in NNW 3.5 mph 3.5 mph 93 % 0.00 in
04:40 45.3 °F 43.4 °F 30.07 in NNW 3.5 mph 3.5 mph 93 % 0.00 in
04:45 45.3 °F 43.4 °F 30.07 in NNW 3.5 mph 3.5 mph 93 % 0.00 in
04:50 45.1 °F 43.2 °F 30.07 in NNW 3.5 mph 3.5 mph 93 % 0.00 in
04:55 45.0 °F 43.1 °F 30.07 in NNW 3.5 mph 3.5 mph 93 % 0.00 in
05:00 44.8 °F 42.9 °F 30.07 in NNW 3.5 mph 3.5 mph 93 % 0.00 in
05:05 44.6 °F 43.0 °F 30.07 in NNW 4.6 mph 4.6 mph 94 % 0.00 in
05:10 44.6 °F 43.0 °F 30.07 in NNW 4.6 mph 4.6 mph 94 % 0.00 in
05:15 44.6 °F 43.0 °F 30.07 in NNW 4.6 mph 4.6 mph 94 % 0.00 in
05:20 44.6 °F 43.0 °F 30.07 in NNW 4.6 mph 4.6 mph 94 % 0.00 in
05:25 44.8 °F 43.2 °F 30.07 in NNW 4.6 mph 4.6 mph 94 % 0.00 in
05:30 44.8 °F 43.2 °F 30.07 in NNW 4.6 mph 4.6 mph 94 % 0.00 in
05:35 44.6 °F 43.0 °F 30.07 in NNW 4.6 mph 4.6 mph 94 % 0.00 in
05:40 44.6 °F 43.0 °F 30.07 in NNW 4.6 mph 4.6 mph 94 % 0.00 in
05:45 44.8 °F 43.2 °F 30.07 in NNW 4.6 mph 4.6 mph 94 % 0.00 in
05:50 44.8 °F 43.4 °F 30.07 in West 4.6 mph 4.6 mph 95 % 0.00 in
05:55 45.0 °F 43.6 °F 30.07 in NNW 4.6 mph 4.6 mph 95 % 0.00 in
06:00 45.3 °F 44.0 °F 30.07 in NNW 4.6 mph 4.6 mph 95 % 0.00 in
06:05 45.5 °F 44.2 °F 30.07 in West 3.5 mph 3.5 mph 95 % 0.00 in
06:07 45.7 °F 44.3 °F 30.07 in NNW 3.5 mph 3.5 mph 95 % 0.00 in
06:12 46.0 °F 44.7 °F 30.07 in NNW 3.5 mph 3.5 mph 95 % 0.00 in
06:17 46.4 °F 45.0 °F 30.07 in NNW 3.5 mph 3.5 mph 95 % 0.00 in
06:22 46.8 °F 45.4 °F 30.07 in NNW 3.5 mph 3.5 mph 95 % 0.00 in
06:27 47.1 °F 45.8 °F 30.07 in NNW 3.5 mph 3.5 mph 95 % 0.00 in
06:32 47.5 °F 46.4 °F 30.07 in SW 3.5 mph 3.5 mph 96 % 0.00 in
06:37 47.8 °F 46.8 °F 30.07 in SW 3.5 mph 3.5 mph 96 % 0.00 in
06:42 48.2 °F 46.8 °F 30.07 in SW 3.5 mph 3.5 mph 95 % 0.00 in
06:47 48.7 °F 47.7 °F 30.07 in SW 3.5 mph 3.5 mph 96 % 0.00 in
06:52 48.9 °F 47.8 °F 30.07 in WSW 3.5 mph 3.5 mph 96 % 0.00 in
06:58 49.3 °F 48.2 °F 30.07 in SW 3.5 mph 3.5 mph 96 % 0.00 in
07:03 49.6 °F 48.5 °F 30.07 in SW 4.6 mph 4.6 mph 96 % 0.00 in
07:08 50.0 °F 48.9 °F 30.07 in WSW 4.6 mph 4.6 mph 96 % 0.00 in
07:13 50.5 °F 49.4 °F 30.07 in SW 4.6 mph 4.6 mph 96 % 0.00 in
07:18 51.1 °F 50.0 °F 30.07 in SW 4.6 mph 4.6 mph 96 % 0.00 in
07:23 52.0 °F 50.9 °F 30.07 in SW 4.6 mph 4.6 mph 96 % 0.00 in
07:28 52.9 °F 52.1 °F 30.07 in SW 4.6 mph 4.6 mph 97 % 0.00 in
07:33 53.6 °F 52.8 °F 30.07 in WSW 4.6 mph 4.6 mph 97 % 0.00 in
07:38 54.5 °F 53.7 °F 30.07 in SW 4.6 mph 4.6 mph 97 % 0.00 in
07:43 55.4 °F 54.3 °F 30.07 in SW 4.6 mph 4.6 mph 96 % 0.00 in
07:48 56.3 °F 55.5 °F 30.07 in SW 4.6 mph 4.6 mph 97 % 0.00 in
07:53 56.8 °F 56.0 °F 30.07 in WSW 4.6 mph 4.6 mph 97 % 0.00 in
07:58 57.7 °F 56.3 °F 30.10 in SW 4.6 mph 4.6 mph 95 % 0.00 in
08:03 57.7 °F 51.6 °F 30.10 in NNW 8.1 mph 8.1 mph 80 % 0.00 in
08:08 58.6 °F 48.9 °F 30.10 in SW 8.1 mph 8.1 mph 70 % 0.00 in
08:13 59.0 °F 47.7 °F 30.10 in NNW 8.1 mph 8.1 mph 66 % 0.00 in
08:18 59.4 °F 48.0 °F 30.07 in NNW 8.1 mph 8.1 mph 66 % 0.00 in
08:23 59.9 °F 48.1 °F 30.07 in NW 8.1 mph 8.1 mph 65 % 0.00 in
08:28 60.4 °F 47.8 °F 30.07 in West 8.1 mph 8.1 mph 63 % 0.00 in
08:33 60.6 °F 47.1 °F 30.07 in NNW 8.1 mph 8.1 mph 61 % 0.00 in
08:38 61.0 °F 46.5 °F 30.07 in NW 8.1 mph 8.1 mph 59 % 0.00 in
08:43 61.7 °F 47.2 °F 30.07 in NW 8.1 mph 8.1 mph 59 % 0.00 in
08:48 62.2 °F 47.3 °F 30.07 in WSW 8.1 mph 8.1 mph 58 % 0.00 in
08:53 62.4 °F 46.5 °F 30.07 in West 8.1 mph 8.1 mph 56 % 0.00 in
08:58 62.8 °F 46.8 °F 30.07 in WSW 8.1 mph 8.1 mph 56 % 0.00 in
09:03 63.0 °F 47.5 °F 30.07 in WNW 10.4 mph 10.4 mph 57 % 0.00 in
09:08 63.5 °F 46.1 °F 30.07 in North 10.4 mph 10.4 mph 53 % 0.00 in
09:13 63.9 °F 46.9 °F 30.07 in South 10.4 mph 10.4 mph 54 % 0.00 in
09:18 64.2 °F 47.2 °F 30.07 in WSW 10.4 mph 10.4 mph 54 % 0.00 in
09:23 64.4 °F 47.4 °F 30.07 in North 10.4 mph 10.4 mph 54 % 0.00 in
09:28 64.6 °F 47.6 °F 30.07 in WNW 10.4 mph 10.4 mph 54 % 0.00 in
09:33 65.5 °F 47.9 °F 30.07 in NW 10.4 mph 10.4 mph 53 % 0.00 in
09:38 65.7 °F 48.1 °F 30.07 in SSE 10.4 mph 10.4 mph 53 % 0.00 in
09:43 65.7 °F 48.1 °F 30.07 in NNE 10.4 mph 10.4 mph 53 % 0.00 in
09:48 65.8 °F 48.2 °F 30.07 in West 10.4 mph 10.4 mph 53 % 0.00 in
09:53 66.2 °F 48.0 °F 30.07 in NW 10.4 mph 10.4 mph 52 % 0.00 in
09:58 66.4 °F 48.2 °F 30.07 in SW 10.4 mph 10.4 mph 52 % 0.00 in
10:03 66.7 °F 48.0 °F 30.07 in WSW 12.7 mph 12.7 mph 51 % 0.00 in
10:08 66.7 °F 48.0 °F 30.07 in SW 12.7 mph 12.7 mph 51 % 0.00 in
10:13 67.1 °F 48.4 °F 30.07 in SW 12.7 mph 12.7 mph 51 % 0.00 in
10:18 67.1 °F 48.4 °F 30.07 in SE 12.7 mph 12.7 mph 51 % 0.00 in
10:23 67.1 °F 48.4 °F 30.07 in NNW 12.7 mph 12.7 mph 51 % 0.00 in
10:25 67.1 °F 48.4 °F 30.07 in North 12.7 mph 12.7 mph 51 % 0.00 in
10:30 67.1 °F 48.4 °F 30.07 in NNW 12.7 mph 12.7 mph 51 % 0.00 in
10:35 68.2 °F 46.6 °F 30.07 in WNW 12.7 mph 12.7 mph 46 % 0.00 in
10:40 68.7 °F 47.1 °F 30.07 in NNE 12.7 mph 12.7 mph 46 % 0.00 in
10:45 68.7 °F 47.1 °F 30.07 in NW 12.7 mph 12.7 mph 46 % 0.00 in
10:50 69.4 °F 47.2 °F 30.07 in North 12.7 mph 12.7 mph 45 % 0.00 in
10:55 69.6 °F 46.7 °F 30.07 in North 12.7 mph 12.7 mph 44 % 0.00 in
11:00 70.0 °F 46.4 °F 30.04 in West 12.7 mph 12.7 mph 43 % 0.00 in
11:05 70.2 °F 46.6 °F 30.04 in NNW 12.7 mph 12.7 mph 43 % 0.00 in
11:10 70.3 °F 46.8 °F 30.04 in SW 12.7 mph 12.7 mph 43 % 0.00 in
11:15 70.5 °F 46.9 °F 30.04 in North 12.7 mph 12.7 mph 43 % 0.00 in
11:20 71.1 °F 47.4 °F 30.04 in South 12.7 mph 12.7 mph 43 % 0.00 in
11:25 71.2 °F 47.6 °F 30.04 in WNW 12.7 mph 12.7 mph 43 % 0.00 in
11:30 71.4 °F 47.7 °F 30.04 in NNW 12.7 mph 12.7 mph 43 % 0.00 in
11:31 71.4 °F 47.1 °F 30.04 in SW 12.7 mph 12.7 mph 42 % 0.00 in
11:36 71.6 °F 47.3 °F 30.04 in NW 12.7 mph 12.7 mph 42 % 0.00 in
11:41 71.6 °F 47.3 °F 30.04 in WNW 12.7 mph 12.7 mph 42 % 0.00 in
11:46 71.8 °F 47.4 °F 30.04 in SSE 12.7 mph 12.7 mph 42 % 0.00 in
11:51 72.3 °F 47.3 °F 30.04 in NW 12.7 mph 12.7 mph 41 % 0.00 in
11:56 72.1 °F 47.8 °F 30.04 in South 12.7 mph 12.7 mph 42 % 0.00 in
12:01 72.5 °F 48.1 °F 30.04 in SW 12.7 mph 12.7 mph 42 % 0.00 in
12:06 72.5 °F 48.1 °F 30.04 in ESE 18.4 mph 18.4 mph 42 % 0.00 in
12:11 72.5 °F 47.5 °F 30.04 in NW 18.4 mph 18.4 mph 41 % 0.00 in
12:16 72.3 °F 47.3 °F 30.04 in WNW 18.4 mph 18.4 mph 41 % 0.00 in
12:21 72.1 °F 47.1 °F 30.04 in North 18.4 mph 18.4 mph 41 % 0.00 in
12:26 72.7 °F 47.6 °F 30.04 in North 18.4 mph 18.4 mph 41 % 0.00 in
12:27 72.7 °F 48.3 °F 30.04 in West 18.4 mph 18.4 mph 42 % 0.00 in
12:32 72.7 °F 48.3 °F 30.04 in SW 18.4 mph 18.4 mph 42 % 0.00 in
12:37 73.0 °F 47.9 °F 30.04 in WSW 18.4 mph 18.4 mph 41 % 0.00 in
12:42 73.2 °F 48.1 °F 30.04 in West 18.4 mph 18.4 mph 41 % 0.00 in
12:47 72.7 °F 47.6 °F 30.04 in NW 18.4 mph 18.4 mph 41 % 0.00 in
12:52 72.0 °F 47.0 °F 30.04 in West 18.4 mph 18.4 mph 41 % 0.00 in
12:57 72.0 °F 47.0 °F 30.04 in South 18.4 mph 18.4 mph 41 % 0.00 in
13:02 72.3 °F 47.3 °F 30.01 in WSW 18.4 mph 18.4 mph 41 % 0.00 in
13:07 73.2 °F 48.1 °F 30.01 in North 6.9 mph 6.9 mph 41 % 0.00 in
13:12 73.9 °F 48.7 °F 30.01 in SW 6.9 mph 6.9 mph 41 % 0.00 in
13:17 73.9 °F 48.7 °F 30.04 in SSW 6.9 mph 6.9 mph 41 % 0.00 in
13:22 73.9 °F 48.7 °F 30.04 in WSW 6.9 mph 6.9 mph 41 % 0.00 in
13:27 73.6 °F 48.4 °F 30.04 in WNW 6.9 mph 6.9 mph 41 % 0.00 in
13:32 73.6 °F 46.4 °F 30.01 in NNW 6.9 mph 6.9 mph 38 % 0.00 in
Live Plover WI Weather - NWS COOP 'PLOW3'
Compliments of Weather Underground - 3.25 mb

Script developed by  Jim McMurry - jmcmurry@mwt.net Adapted for the template by  Wim van der Kuil - Leuven-Template.eu

You find our weather info also at:

Weather Underground

Citizen Weather Observer Program (CWOP)

HAMweather, WeatherForYou, PWS Weather

Anything Weather

Equipment we use:

Weather-station
Davis VP2

Weather-program
Weather Display

Weather-server
Dell I7 WorkStation

Provider
FatCow

Davis VP2

Weather Display

Dell I7 WorkStation

FatCow